Time;durP1;ratioP1;P1;durP2;ratioP2;P2;SDS_P1;SDS_P2;PMS_P1;PMS_P2;Temp;Humidity;BMP_temperature;BMP_pressure;BME280_temperature;BME280_humidity;BME280_pressure;Samples;Min_cycle;Max_cycle;Signal;HPM_P1;HPM_P2
2022/07/21 00:00:34;;;;;;;5.05;3.55;;;20.40;99.90;;;;;;5072566;28;20044;-75
2022/07/21 00:03:01;;;;;;;5.50;3.90;;;20.40;99.90;;;;;;5073718;28;20044;-74
2022/07/21 00:05:27;;;;;;;5.90;4.10;;;20.30;99.90;;;;;;5073459;28;20048;-74
2022/07/21 00:07:54;;;;;;;6.47;4.07;;;20.30;99.90;;;;;;5073499;28;20048;-75
2022/07/21 00:10:22;;;;;;;5.60;4.35;;;20.20;99.90;;;;;;5072194;28;20568;-75
2022/07/21 00:12:47;;;;;;;6.25;4.07;;;20.20;99.90;;;;;;5074220;28;20119;-74
2022/07/21 00:15:16;;;;;;;7.25;5.10;;;20.10;99.90;;;;;;5072190;28;20445;-75
2022/07/21 00:17:42;;;;;;;6.80;4.82;;;20.10;99.90;;;;;;5073392;28;20478;-74
2022/07/21 00:20:09;;;;;;;7.03;4.95;;;20.10;99.90;;;;;;5073351;28;20036;-74
2022/07/21 00:22:35;;;;;;;8.40;4.50;;;20.00;99.90;;;;;;5072558;28;20052;-76
2022/07/21 00:25:00;;;;;;;6.38;4.82;;;19.90;99.90;;;;;;5073829;28;20101;-76
2022/07/21 00:27:26;;;;;;;7.32;4.68;;;19.90;99.90;;;;;;5072307;28;20359;-75
2022/07/21 00:29:52;;;;;;;7.70;4.78;;;19.90;99.90;;;;;;5073022;28;20075;-76
2022/07/21 00:32:18;;;;;;;9.45;5.20;;;19.90;99.90;;;;;;5072069;28;20048;-76
2022/07/21 00:34:46;;;;;;;6.25;4.47;;;19.80;99.90;;;;;;5073963;28;20068;-77
2022/07/21 00:37:12;;;;;;;7.25;4.63;;;19.80;99.90;;;;;;5073636;28;20404;-77
2022/07/21 00:39:37;;;;;;;7.20;4.93;;;19.90;99.90;;;;;;5071989;28;20128;-76
2022/07/21 00:42:04;;;;;;;6.85;5.07;;;19.90;99.90;;;;;;5073348;28;20131;-76
2022/07/21 00:44:30;;;;;;;7.47;5.35;;;19.90;99.90;;;;;;5073368;28;20119;-77
2022/07/21 00:46:56;;;;;;;6.32;5.03;;;19.90;99.90;;;;;;5055521;28;20532;-76
2022/07/21 00:49:22;;;;;;;8.15;5.05;;;19.90;99.90;;;;;;5075608;28;20044;-76
2022/07/21 00:51:49;;;;;;;8.25;5.07;;;19.90;99.90;;;;;;5077162;28;20048;-76
2022/07/21 00:54:16;;;;;;;6.65;4.93;;;20.00;99.90;;;;;;5077006;28;20044;-75
2022/07/21 00:56:42;;;;;;;7.43;5.13;;;20.00;99.90;;;;;;5077026;28;20048;-76
2022/07/21 00:59:08;;;;;;;8.32;4.80;;;20.00;99.90;;;;;;5076986;28;20055;-76
2022/07/21 01:01:34;;;;;;;7.38;4.65;;;20.00;99.90;;;;;;5076853;28;20044;-76
2022/07/21 01:04:00;;;;;;;7.70;4.90;;;20.00;99.90;;;;;;5076955;28;20059;-75
2022/07/21 01:06:26;;;;;;;7.50;5.07;;;20.10;99.90;;;;;;5075594;28;20048;-75
2022/07/21 01:08:53;;;;;;;6.00;4.50;;;20.00;99.90;;;;;;5075529;28;20051;-76
2022/07/21 01:11:20;;;;;;;6.18;4.40;;;20.00;99.90;;;;;;5075435;28;20036;-75
2022/07/21 01:13:47;;;;;;;8.35;5.30;;;20.00;99.90;;;;;;5076675;28;20122;-76
2022/07/21 01:16:13;;;;;;;9.70;5.88;;;20.00;99.90;;;;;;5075502;28;20044;-76
2022/07/21 01:18:40;;;;;;;8.90;4.90;;;20.00;99.90;;;;;;5076144;28;20345;-76
2022/07/21 01:21:41;;;;;;;7.00;4.80;;;20.10;99.90;;;;;;5075512;28;20044;-76
2022/07/21 01:24:08;;;;;;;7.70;5.18;;;20.10;99.90;;;;;;5076839;28;20052;-76
2022/07/21 01:26:42;;;;;;;7.10;5.15;;;20.10;99.90;;;;;;5076322;28;20044;-76
2022/07/21 01:29:09;;;;;;;10.63;4.53;;;20.10;99.90;;;;;;5076379;28;20047;-76
2022/07/21 01:31:36;;;;;;;8.05;5.25;;;20.10;99.90;;;;;;5075004;28;20080;-76
2022/07/21 01:34:01;;;;;;;6.75;4.90;;;20.10;99.90;;;;;;5076437;28;20032;-76
2022/07/21 01:36:27;;;;;;;8.25;5.60;;;20.00;99.90;;;;;;5075551;28;20047;-76
2022/07/21 01:41:37;;;;;;;9.27;5.25;;;20.00;99.90;;;;;;5076019;28;20095;-76
2022/07/21 01:44:08;;;;;;;8.05;5.35;;;20.10;99.90;;;;;;5076147;28;20075;-76
2022/07/21 01:46:37;;;;;;;7.20;4.97;;;20.00;99.90;;;;;;5076223;28;20047;-76
2022/07/21 01:49:04;;;;;;;8.10;5.47;;;20.00;99.90;;;;;;5076005;28;20091;-76
2022/07/21 01:51:30;;;;;;;7.95;5.45;;;19.90;99.90;;;;;;5076455;28;20094;-75
2022/07/21 01:53:56;;;;;;;9.40;5.80;;;19.80;99.90;;;;;;5074931;28;20044;-76
2022/07/21 01:56:23;;;;;;;9.05;5.90;;;19.80;99.90;;;;;;5058756;28;20417;-74
2022/07/21 01:58:51;;;;;;;10.10;6.63;;;19.70;99.90;;;;;;5075769;28;20069;-75
2022/07/21 02:01:17;;;;;;;9.13;6.28;;;19.60;99.90;;;;;;5075682;28;20055;-75
2022/07/21 02:03:44;;;;;;;7.65;6.25;;;19.50;99.90;;;;;;5091264;28;20367;-74
2022/07/21 02:06:10;;;;;;;9.00;6.28;;;19.40;99.90;;;;;;5075709;28;20177;-76
2022/07/21 02:08:36;;;;;;;8.52;6.18;;;19.30;99.90;;;;;;5075674;28;20052;-76
2022/07/21 02:11:03;;;;;;;10.70;6.53;;;19.20;99.90;;;;;;5074356;28;20476;-76
2022/07/21 02:13:29;;;;;;;10.40;6.18;;;19.10;99.90;;;;;;5075079;28;20376;-75
2022/07/21 02:15:55;;;;;;;8.38;6.07;;;19.00;99.90;;;;;;5076107;28;20123;-74
2022/07/21 02:18:21;;;;;;;8.75;5.68;;;19.00;99.90;;;;;;5075496;28;20037;-75
2022/07/21 02:20:50;;;;;;;8.85;6.30;;;18.90;99.90;;;;;;5074730;28;20350;-75
2022/07/21 02:23:17;;;;;;;9.82;6.50;;;18.90;99.90;;;;;;5074358;28;20079;-75
2022/07/21 02:25:43;;;;;;;9.18;6.07;;;18.90;99.90;;;;;;5075371;28;20050;-78
2022/07/21 02:28:09;;;;;;;8.95;6.75;;;18.90;99.90;;;;;;5075342;28;20408;-75
2022/07/21 02:30:35;;;;;;;9.52;6.28;;;18.90;99.90;;;;;;5075060;28;20040;-75
2022/07/21 02:33:01;;;;;;;8.30;6.43;;;18.90;99.90;;;;;;5074209;28;20037;-76
2022/07/21 02:35:27;;;;;;;8.55;6.05;;;18.90;99.90;;;;;;5075154;28;20048;-76
2022/07/21 02:37:53;;;;;;;9.18;6.43;;;18.90;99.90;;;;;;5075880;28;20045;-76
2022/07/21 02:40:19;;;;;;;8.50;6.57;;;18.90;99.90;;;;;;5074354;28;20045;-75
2022/07/21 02:42:45;;;;;;;8.85;5.95;;;19.00;99.90;;;;;;5074710;28;20491;-75
2022/07/21 02:45:11;;;;;;;7.57;5.57;;;19.00;99.90;;;;;;5074977;28;20044;-75
2022/07/21 02:47:56;;;;;;;9.57;6.10;;;19.10;99.90;;;;;;5074898;28;20041;-78
2022/07/21 02:50:25;;;;;;;7.23;5.70;;;19.20;99.90;;;;;;5056823;28;20041;-76
2022/07/21 02:52:55;;;;;;;7.88;5.55;;;19.20;99.90;;;;;;5074100;28;20181;-75
2022/07/21 02:55:21;;;;;;;7.78;5.93;;;19.20;99.90;;;;;;5074601;28;20059;-75
2022/07/21 02:57:47;;;;;;;7.50;5.85;;;19.30;99.90;;;;;;5074680;28;20036;-76
2022/07/21 03:00:13;;;;;;;8.77;6.10;;;19.30;99.90;;;;;;5073679;28;20045;-75
2022/07/21 03:02:39;;;;;;;7.75;5.78;;;19.30;99.90;;;;;;5074869;28;20099;-75
2022/07/21 03:05:05;;;;;;;7.05;5.78;;;19.30;99.90;;;;;;5074623;28;20499;-75
2022/07/21 03:07:31;;;;;;;9.68;6.47;;;19.40;99.90;;;;;;5075290;28;20040;-75
2022/07/21 03:09:56;;;;;;;8.70;6.18;;;19.40;99.90;;;;;;5074415;28;20457;-76
2022/07/21 03:12:22;;;;;;;7.45;6.20;;;19.40;99.90;;;;;;5073883;28;20051;-75
2022/07/21 03:14:47;;;;;;;8.77;6.40;;;19.50;99.90;;;;;;5074108;28;20056;-75
2022/07/21 03:17:13;;;;;;;8.63;6.43;;;19.50;99.90;;;;;;5074291;28;20123;-75
2022/07/21 03:19:39;;;;;;;8.75;6.35;;;19.50;99.90;;;;;;5074798;28;20082;-75
2022/07/21 03:22:05;;;;;;;10.07;6.93;;;19.50;99.90;;;;;;5074271;28;20044;-76
2022/07/21 03:24:31;;;;;;;9.23;7.15;;;19.50;99.90;;;;;;5074250;28;20457;-75
2022/07/21 03:26:57;;;;;;;8.77;6.88;;;19.50;99.90;;;;;;5074147;28;20076;-75
2022/07/21 03:29:23;;;;;;;11.75;7.22;;;19.50;99.90;;;;;;5074609;28;20051;-76
2022/07/21 03:31:49;;;;;;;10.00;7.72;;;19.50;99.90;;;;;;5073967;28;20067;-76
2022/07/21 03:34:15;;;;;;;9.57;6.90;;;19.50;99.90;;;;;;5073046;28;20051;-76
2022/07/21 03:36:41;;;;;;;11.15;7.65;;;19.50;99.90;;;;;;5073265;28;20430;-76
2022/07/21 03:39:06;;;;;;;11.15;7.35;;;19.50;99.90;;;;;;5072202;28;20426;-76
2022/07/21 03:41:32;;;;;;;10.20;7.68;;;19.50;99.90;;;;;;5072520;28;20061;-76
2022/07/21 03:43:58;;;;;;;13.00;7.20;;;19.50;99.90;;;;;;5072424;28;20127;-76
2022/07/21 03:46:23;;;;;;;9.93;6.85;;;19.50;99.90;;;;;;5072716;28;20040;-76
2022/07/21 03:48:49;;;;;;;9.77;7.15;;;19.50;99.90;;;;;;5073935;28;20048;-76
2022/07/21 03:51:15;;;;;;;11.25;7.57;;;19.50;99.90;;;;;;5072365;28;20064;-75
2022/07/21 03:53:41;;;;;;;8.80;7.40;;;19.50;99.90;;;;;;5073711;28;20127;-76
2022/07/21 03:56:06;;;;;;;10.32;7.55;;;19.50;99.90;;;;;;5073650;28;20462;-76
2022/07/21 03:58:32;;;;;;;8.25;7.32;;;19.50;99.90;;;;;;5073632;28;20048;-76
2022/07/21 04:00:58;;;;;;;10.98;8.40;;;19.50;99.90;;;;;;5073254;28;20041;-76
2022/07/21 04:03:24;;;;;;;10.07;7.57;;;19.50;99.90;;;;;;5072200;28;20140;-76
2022/07/21 04:05:49;;;;;;;11.02;7.78;;;19.50;99.90;;;;;;5073532;28;20088;-76
2022/07/21 04:08:15;;;;;;;9.95;7.50;;;19.50;99.90;;;;;;5072500;28;20048;-76
2022/07/21 04:10:43;;;;;;;8.82;7.50;;;19.60;99.90;;;;;;5073437;28;20036;-76
2022/07/21 04:13:11;;;;;;;9.52;7.38;;;19.60;99.90;;;;;;5073414;28;20040;-76
2022/07/21 04:15:37;;;;;;;10.57;7.90;;;19.60;99.90;;;;;;5072603;28;20039;-76
2022/07/21 04:18:04;;;;;;;10.80;8.43;;;19.60;99.90;;;;;;5073118;28;20051;-77
2022/07/21 04:20:30;;;;;;;12.75;9.85;;;19.60;99.90;;;;;;5073356;28;20369;-76
2022/07/21 04:22:55;;;;;;;12.23;9.73;;;19.50;99.90;;;;;;5054444;28;20048;-76
2022/07/21 04:25:22;;;;;;;12.90;10.50;;;19.50;99.90;;;;;;5073555;28;20098;-76
2022/07/21 04:27:49;;;;;;;17.13;10.52;;;19.40;99.90;;;;;;5073282;28;20049;-76
2022/07/21 04:30:21;;;;;;;12.77;10.75;;;19.40;99.90;;;;;;5073137;28;20040;-75
2022/07/21 04:32:47;;;;;;;14.68;11.55;;;19.30;99.90;;;;;;5073027;28;20044;-76
2022/07/21 04:35:14;;;;;;;16.55;12.30;;;19.30;99.90;;;;;;5073142;28;20044;-75
2022/07/21 04:37:40;;;;;;;14.52;12.30;;;19.20;99.90;;;;;;5073185;28;20097;-75
2022/07/21 04:40:08;;;;;;;15.05;12.48;;;19.20;99.90;;;;;;5073181;28;20119;-75
2022/07/21 04:42:34;;;;;;;16.08;12.48;;;19.20;99.90;;;;;;5073144;28;20044;-76
2022/07/21 04:45:00;;;;;;;16.02;12.38;;;19.10;99.90;;;;;;5071939;28;20075;-75
2022/07/21 04:47:25;;;;;;;15.95;11.98;;;19.10;99.90;;;;;;5072798;28;20113;-74
2022/07/21 04:49:51;;;;;;;13.73;11.43;;;19.00;99.90;;;;;;5071630;28;20046;-75
2022/07/21 04:52:17;;;;;;;11.70;10.35;;;19.00;99.90;;;;;;5071886;28;20036;-75
2022/07/21 04:54:42;;;;;;;13.27;10.85;;;19.00;99.90;;;;;;5072776;28;20066;-76
2022/07/21 04:57:08;;;;;;;10.82;9.13;;;18.90;99.90;;;;;;5072963;28;20043;-77
2022/07/21 04:59:34;;;;;;;8.98;7.50;;;18.90;99.90;;;;;;5073017;28;20048;-76
2022/07/21 05:02:00;;;;;;;9.00;7.57;;;18.90;99.90;;;;;;5072841;28;20123;-75
2022/07/21 05:04:26;;;;;;;10.35;8.35;;;18.90;99.90;;;;;;5073532;28;20358;-75
2022/07/21 05:06:52;;;;;;;11.15;9.07;;;18.80;99.90;;;;;;5055059;28;20047;-76
2022/07/21 05:09:17;;;;;;;11.80;9.82;;;18.80;99.90;;;;;;5072817;28;20119;-76
2022/07/21 05:11:43;;;;;;;11.90;10.15;;;18.90;99.90;;;;;;5072526;28;20045;-76
2022/07/21 05:14:09;;;;;;;12.40;9.63;;;18.80;99.90;;;;;;5072616;28;20053;-76
2022/07/21 05:16:34;;;;;;;11.80;9.90;;;18.80;99.90;;;;;;5072783;28;20036;-76
2022/07/21 05:19:01;;;;;;;12.93;10.35;;;18.80;99.90;;;;;;5071532;28;20044;-76
2022/07/21 05:21:27;;;;;;;13.70;11.10;;;18.80;99.90;;;;;;5071997;28;20131;-77
2022/07/21 05:23:52;;;;;;;14.65;12.00;;;18.90;99.90;;;;;;5072750;28;20131;-77
2022/07/21 05:26:18;;;;;;;15.40;12.98;;;18.90;99.90;;;;;;5072047;28;20040;-76
2022/07/21 05:28:44;;;;;;;15.60;13.30;;;18.90;99.90;;;;;;5071956;28;20041;-75
2022/07/21 05:31:09;;;;;;;17.38;13.43;;;19.00;99.90;;;;;;5072226;28;20049;-75
2022/07/21 05:33:36;;;;;;;15.52;13.73;;;19.00;99.90;;;;;;5073191;28;20055;-76
2022/07/21 05:36:05;;;;;;;17.30;14.32;;;19.00;99.90;;;;;;5058454;28;20119;-76
2022/07/21 05:38:31;;;;;;;16.67;13.18;;;19.00;99.90;;;;;;5075163;28;20045;-76
2022/07/21 05:40:59;;;;;;;16.73;13.70;;;19.00;99.90;;;;;;5076105;28;20036;-76
2022/07/21 05:43:26;;;;;;;16.52;13.02;;;19.00;99.90;;;;;;5076198;28;20066;-75
2022/07/21 05:45:52;;;;;;;14.25;12.35;;;19.10;99.90;;;;;;5076151;28;20080;-77
2022/07/21 05:48:18;;;;;;;14.75;11.82;;;19.10;99.90;;;;;;5075024;28;20051;-76
2022/07/21 05:50:44;;;;;;;15.25;12.60;;;19.10;99.90;;;;;;5076487;28;20044;-76
2022/07/21 05:53:10;;;;;;;14.55;12.13;;;19.10;99.90;;;;;;5076009;28;20123;-77
2022/07/21 05:55:36;;;;;;;15.27;11.98;;;19.20;99.90;;;;;;5076446;28;20131;-76
2022/07/21 05:58:02;;;;;;;13.88;11.88;;;19.20;99.90;;;;;;5074890;28;20050;-76
2022/07/21 06:00:27;;;;;;;14.98;12.25;;;19.20;99.90;;;;;;5058128;28;20044;-76
2022/07/21 06:02:53;;;;;;;13.55;12.02;;;19.20;99.90;;;;;;5075370;28;20059;-76
2022/07/21 06:05:19;;;;;;;13.95;11.43;;;19.20;99.90;;;;;;5074779;28;20068;-75
2022/07/21 06:07:45;;;;;;;14.18;11.20;;;19.20;99.90;;;;;;5075474;28;20044;-76
2022/07/21 06:10:10;;;;;;;14.23;11.90;;;19.20;99.90;;;;;;5058540;28;20052;-69
2022/07/21 06:12:36;;;;;;;13.40;11.38;;;19.10;99.90;;;;;;5075575;28;20511;-67
2022/07/21 06:15:02;;;;;;;12.60;10.98;;;19.10;99.90;;;;;;5075503;28;20044;-67
2022/07/21 06:17:31;;;;;;;13.30;11.40;;;19.20;99.90;;;;;;5075439;28;20051;-67
2022/07/21 06:19:58;;;;;;;13.57;10.75;;;19.20;99.90;;;;;;5075389;28;20044;-67
2022/07/21 06:22:24;;;;;;;14.52;10.93;;;19.10;99.90;;;;;;5075834;28;20048;-68
2022/07/21 06:24:50;;;;;;;13.43;10.25;;;19.10;99.90;;;;;;5075283;28;20088;-67
2022/07/21 06:27:15;;;;;;;14.35;11.55;;;19.10;99.90;;;;;;5075298;28;20111;-67
2022/07/21 06:29:41;;;;;;;14.02;12.32;;;19.20;99.90;;;;;;5073944;28;20041;-67
2022/07/21 06:32:07;;;;;;;13.93;11.63;;;19.20;99.90;;;;;;5074893;28;20150;-67
2022/07/21 06:34:33;;;;;;;13.30;11.48;;;19.20;99.90;;;;;;5075038;28;20467;-67
2022/07/21 06:36:58;;;;;;;14.82;12.60;;;19.10;99.90;;;;;;5075564;28;20062;-66
2022/07/21 06:39:24;;;;;;;14.18;11.82;;;19.10;99.90;;;;;;5075026;28;20127;-66
2022/07/21 06:41:50;;;;;;;14.00;11.50;;;19.10;99.90;;;;;;5074943;28;20094;-66
2022/07/21 06:44:15;;;;;;;16.42;13.18;;;19.10;99.90;;;;;;5074934;28;20046;-67
2022/07/21 06:46:41;;;;;;;13.48;12.07;;;19.10;99.90;;;;;;5073956;28;20091;-66
2022/07/21 06:49:06;;;;;;;15.27;12.43;;;19.10;99.90;;;;;;5074906;28;20044;-66
2022/07/21 06:51:32;;;;;;;16.23;13.52;;;19.10;99.90;;;;;;5075265;28;20511;-66
2022/07/21 06:53:58;;;;;;;16.83;13.85;;;19.10;99.90;;;;;;5074543;28;20048;-66
2022/07/21 06:56:23;;;;;;;15.98;13.73;;;19.10;99.90;;;;;;5057166;28;20083;-67
2022/07/21 06:58:49;;;;;;;15.25;12.45;;;19.10;99.90;;;;;;5074666;28;20051;-67
2022/07/21 07:01:16;;;;;;;17.90;13.73;;;19.20;99.90;;;;;;5074539;28;20051;-67
2022/07/21 07:03:43;;;;;;;15.57;13.50;;;19.20;99.90;;;;;;5075277;28;20067;-67
2022/07/21 07:06:09;;;;;;;16.27;13.48;;;19.20;99.90;;;;;;5073438;28;20048;-66
2022/07/21 07:08:36;;;;;;;16.70;14.15;;;19.30;99.90;;;;;;5074402;28;20048;-67
2022/07/21 07:11:02;;;;;;;17.33;13.95;;;19.40;99.90;;;;;;5074532;28;20050;-66
2022/07/21 07:13:28;;;;;;;17.58;14.05;;;19.50;99.90;;;;;;5074786;28;20045;-66
2022/07/21 07:15:54;;;;;;;18.30;14.60;;;19.50;99.90;;;;;;5073425;28;20436;-66
2022/07/21 07:18:21;;;;;;;17.00;13.82;;;19.50;99.90;;;;;;5074816;28;20048;-67
2022/07/21 07:20:47;;;;;;;16.63;13.15;;;19.50;99.90;;;;;;5073939;28;20094;-66
2022/07/21 07:23:13;;;;;;;16.60;12.73;;;19.50;99.90;;;;;;5073255;28;20048;-67
2022/07/21 07:25:38;;;;;;;16.77;14.13;;;19.50;99.90;;;;;;5073714;28;20071;-67
2022/07/21 07:28:05;;;;;;;17.65;14.07;;;19.50;99.90;;;;;;5073607;28;20054;-68
2022/07/21 07:30:30;;;;;;;18.13;14.57;;;19.50;99.90;;;;;;5072611;28;20041;-67
2022/07/21 07:32:56;;;;;;;16.95;14.63;;;19.60;99.90;;;;;;5072661;28;20128;-67
2022/07/21 07:35:22;;;;;;;18.23;14.70;;;19.70;99.90;;;;;;5073867;28;20548;-66
2022/07/21 07:37:48;;;;;;;17.05;14.88;;;19.80;99.90;;;;;;5074194;28;20044;-66
2022/07/21 07:40:19;;;;;;;17.67;14.63;;;20.00;99.90;;;;;;5073717;28;20041;-66
2022/07/21 07:42:46;;;;;;;16.70;14.18;;;20.20;99.90;;;;;;5074248;28;20479;-66
2022/07/21 07:45:12;;;;;;;16.02;13.70;;;20.50;99.90;;;;;;5073602;28;20097;-66
2022/07/21 07:47:38;;;;;;;14.82;12.73;;;20.70;99.90;;;;;;5073668;28;20066;-66
2022/07/21 07:50:09;;;;;;;15.85;12.85;;;20.80;99.90;;;;;;5074102;28;20485;-66
2022/07/21 07:52:36;;;;;;;17.88;13.15;;;20.90;99.90;;;;;;5073829;28;20044;-67
2022/07/21 07:55:06;;;;;;;15.05;12.18;;;20.90;99.90;;;;;;5073526;28;20040;-66
2022/07/21 07:57:32;;;;;;;16.77;12.80;;;20.80;99.90;;;;;;5073861;28;20551;-66
2022/07/21 07:59:58;;;;;;;16.40;13.05;;;20.60;99.90;;;;;;5073358;28;20041;-66
2022/07/21 08:02:24;;;;;;;14.30;12.52;;;20.50;99.90;;;;;;5074023;28;20059;-66
2022/07/21 08:04:49;;;;;;;15.57;12.77;;;20.50;99.90;;;;;;5073424;28;20060;-66
2022/07/21 08:07:15;;;;;;;16.33;14.10;;;20.40;99.90;;;;;;5074112;28;20135;-66
2022/07/21 08:09:41;;;;;;;17.80;14.52;;;20.30;99.90;;;;;;5073315;28;20091;-66
2022/07/21 08:12:07;;;;;;;17.20;14.55;;;20.20;99.90;;;;;;5073507;28;20048;-67
2022/07/21 08:14:33;;;;;;;19.50;14.45;;;20.10;99.90;;;;;;5073804;28;20441;-66
2022/07/21 08:16:59;;;;;;;15.25;13.25;;;20.20;99.90;;;;;;5072762;28;20119;-66
2022/07/21 08:19:26;;;;;;;15.45;12.63;;;20.40;99.90;;;;;;5073092;28;20048;-67
2022/07/21 08:21:52;;;;;;;14.20;11.68;;;20.60;99.90;;;;;;5072939;28;20036;-67
2022/07/21 08:24:18;;;;;;;14.38;11.88;;;20.90;99.90;;;;;;5073464;28;20381;-66
2022/07/21 08:26:44;;;;;;;13.32;11.80;;;20.80;99.90;;;;;;5072925;28;20052;-66
2022/07/21 08:29:10;;;;;;;13.07;11.32;;;20.90;99.90;;;;;;5072979;28;20527;-67
2022/07/21 08:31:35;;;;;;;13.18;11.77;;;20.80;99.90;;;;;;5072764;28;20080;-67
2022/07/21 08:34:01;;;;;;;14.38;12.25;;;20.70;99.90;;;;;;5073112;28;20098;-67
2022/07/21 08:36:27;;;;;;;13.45;11.18;;;20.60;99.90;;;;;;5073592;28;20057;-66
2022/07/21 08:38:52;;;;;;;14.27;11.40;;;20.70;99.90;;;;;;5072786;28;20541;-67
2022/07/21 08:41:18;;;;;;;14.32;12.20;;;20.90;99.90;;;;;;5072799;28;20075;-67
2022/07/21 08:43:44;;;;;;;13.18;11.45;;;21.10;99.90;;;;;;5072748;28;20373;-67
2022/07/21 08:46:10;;;;;;;14.63;11.80;;;21.30;99.90;;;;;;5071403;28;20052;-66
2022/07/21 08:48:36;;;;;;;14.80;12.73;;;21.40;99.90;;;;;;5072689;28;20052;-67
2022/07/21 08:51:03;;;;;;;14.50;12.20;;;21.40;99.90;;;;;;5073554;28;20354;-66
2022/07/21 08:53:28;;;;;;;14.90;12.10;;;21.50;99.90;;;;;;5072703;28;20037;-67
2022/07/21 08:55:55;;;;;;;13.82;11.23;;;21.50;99.90;;;;;;5072470;28;20051;-67
2022/07/21 08:58:21;;;;;;;11.90;10.45;;;21.50;99.90;;;;;;5071358;28;20474;-67
2022/07/21 09:00:48;;;;;;;14.00;11.63;;;21.40;99.90;;;;;;5071369;28;20177;-67
2022/07/21 09:03:27;;;;;;;13.27;11.48;;;21.30;99.90;;;;;;5072734;28;20064;-66
2022/07/21 09:06:29;;;;;;;12.68;11.20;;;21.30;99.90;;;;;;5072610;28;20056;-67
2022/07/21 09:08:56;;;;;;;14.38;11.35;;;21.30;99.90;;;;;;5031051;28;20049;-67
2022/07/21 09:11:30;;;;;;;13.20;10.88;;;21.30;99.90;;;;;;5068645;28;20138;-67
2022/07/21 09:14:11;;;;;;;12.52;10.93;;;21.40;99.90;;;;;;5076417;28;20122;-67
2022/07/21 09:16:46;;;;;;;12.48;10.77;;;21.40;99.90;;;;;;5076880;28;20123;-67
2022/07/21 09:19:21;;;;;;;12.30;10.53;;;21.50;99.90;;;;;;5076760;28;20388;-67
2022/07/21 09:21:47;;;;;;;14.75;11.05;;;21.50;99.90;;;;;;5076713;28;20137;-66
2022/07/21 09:24:17;;;;;;;12.15;10.80;;;21.60;99.90;;;;;;5076942;28;20059;-66
2022/07/21 09:27:06;;;;;;;11.48;10.23;;;21.60;99.90;;;;;;5075735;28;20370;-67
2022/07/21 09:29:47;;;;;;;12.82;11.13;;;21.60;99.90;;;;;;5076055;28;20067;-66
2022/07/21 09:32:23;;;;;;;14.20;11.27;;;21.50;99.90;;;;;;5076373;28;20170;-67
2022/07/21 09:35:10;;;;;;;12.90;10.55;;;21.50;99.90;;;;;;5076228;28;20128;-67
2022/07/21 09:37:37;;;;;;;11.85;10.55;;;21.50;99.90;;;;;;5076111;28;20098;-67
2022/07/21 09:40:09;;;;;;;12.02;9.85;;;21.60;99.90;;;;;;5075714;28;20486;-66
2022/07/21 09:42:49;;;;;;;13.70;10.52;;;21.80;99.90;;;;;;5076573;28;20366;-66
2022/07/21 09:45:17;;;;;;;11.57;10.18;;;21.90;99.90;;;;;;5075985;28;20122;-66
2022/07/21 09:47:44;;;;;;;12.85;10.25;;;22.00;99.90;;;;;;5075226;28;20044;-67
2022/07/21 09:50:15;;;;;;;12.68;10.75;;;22.20;99.90;;;;;;5075757;28;20045;-66
2022/07/21 09:52:45;;;;;;;11.88;9.80;;;22.40;99.90;;;;;;5076179;28;20470;-66
2022/07/21 09:55:14;;;;;;;10.80;9.55;;;22.50;99.90;;;;;;5076464;28;20041;-67
2022/07/21 09:57:40;;;;;;;12.30;10.50;;;22.50;99.90;;;;;;5075691;28;20108;-66
2022/07/21 10:00:09;;;;;;;11.68;10.23;;;22.30;99.90;;;;;;5076241;28;20123;-66
2022/07/21 10:02:35;;;;;;;12.63;10.38;;;22.10;99.90;;;;;;5075294;28;20095;-67
2022/07/21 10:05:13;;;;;;;12.30;10.00;;;21.90;99.90;;;;;;5076272;28;20106;-65
2022/07/21 10:07:42;;;;;;;13.25;11.70;;;21.90;99.90;;;;;;5075003;28;20047;-66
2022/07/21 10:10:08;;;;;;;13.77;11.68;;;22.00;99.90;;;;;;5075158;28;20051;-66
2022/07/21 10:12:35;;;;;;;13.55;10.90;;;22.20;99.90;;;;;;5058606;28;20052;-68
2022/07/21 10:15:01;;;;;;;14.18;10.93;;;22.30;99.90;;;;;;5075287;28;20055;-66
2022/07/21 10:17:27;;;;;;;13.43;11.57;;;22.40;99.90;;;;;;5075259;28;20048;-67
2022/07/21 10:20:16;;;;;;;13.80;11.25;;;22.40;99.90;;;;;;5075086;28;20437;-66
2022/07/21 10:23:09;;;;;;;16.02;13.27;;;22.20;99.90;;;;;;5074293;28;20063;-65
2022/07/21 10:25:36;;;;;;;14.98;12.63;;;21.90;99.90;;;;;;5075167;28;20052;-66
2022/07/21 10:28:11;;;;;;;15.93;13.05;;;21.80;99.90;;;;;;5075012;28;20083;-66
2022/07/21 10:30:48;;;;;;;16.80;13.80;;;21.80;99.90;;;;;;5074615;28;20037;-66
2022/07/21 10:33:16;;;;;;;16.92;13.90;;;21.80;99.90;;;;;;5075505;28;20036;-66
2022/07/21 10:35:46;;;;;;;18.20;13.90;;;21.70;99.90;;;;;;5074170;28;20108;-66
2022/07/21 10:38:30;;;;;;;16.02;13.05;;;21.60;99.90;;;;;;5075129;28;20504;-66
2022/07/21 10:40:57;;;;;;;18.98;14.05;;;21.50;99.90;;;;;;5074787;28;20084;-66
2022/07/21 10:43:26;;;;;;;18.85;14.38;;;21.50;99.90;;;;;;5074812;28;20106;-66
2022/07/21 10:45:54;;;;;;;19.02;14.88;;;21.60;99.90;;;;;;5074862;28;20135;-65
2022/07/21 10:48:39;;;;;;;20.08;14.95;;;21.60;99.90;;;;;;5057693;28;20060;-66
2022/07/21 10:51:14;;;;;;;19.70;14.85;;;21.60;99.90;;;;;;5073554;28;20083;-66
2022/07/21 10:53:41;;;;;;;19.30;14.57;;;21.50;99.90;;;;;;5074794;28;20060;-66
2022/07/21 10:56:08;;;;;;;20.33;15.50;;;21.60;99.90;;;;;;5074675;28;20052;-66
2022/07/21 10:58:37;;;;;;;18.63;15.13;;;21.60;99.90;;;;;;5073964;28;20060;-66
2022/07/21 11:01:18;;;;;;;19.83;14.68;;;21.70;99.90;;;;;;5075293;28;20041;-65
2022/07/21 11:03:45;;;;;;;18.75;15.05;;;21.70;99.90;;;;;;5074090;28;20493;-65
2022/07/21 11:06:16;;;;;;;18.88;14.73;;;21.80;99.90;;;;;;5074397;28;20490;-66
2022/07/21 11:08:43;;;;;;;19.58;14.52;;;21.90;99.90;;;;;;5075019;28;20354;-66
2022/07/21 11:11:13;;;;;;;17.90;15.20;;;22.00;99.90;;;;;;5074263;28;20401;-66
2022/07/21 11:13:59;;;;;;;19.73;15.98;;;22.20;99.90;;;;;;5073830;28;20493;-66
2022/07/21 11:16:54;;;;;;;17.13;14.32;;;22.40;99.90;;;;;;5074083;28;20045;-66
2022/07/21 11:19:34;;;;;;;15.93;13.02;;;22.50;99.90;;;;;;5064647;28;20044;-65
2022/07/21 11:22:05;;;;;;;16.27;12.45;;;22.70;99.90;;;;;;5074037;28;20052;-66
2022/07/21 11:24:32;;;;;;;14.25;10.98;;;22.80;99.90;;;;;;5074001;28;20045;-66
2022/07/21 11:27:00;;;;;;;13.05;10.85;;;22.70;99.90;;;;;;5073875;28;20052;-65
2022/07/21 11:29:26;;;;;;;15.55;11.80;;;22.60;99.90;;;;;;5073838;28;20045;-66
2022/07/21 11:31:53;;;;;;;14.55;12.10;;;22.50;99.90;;;;;;5072877;28;20493;-66
2022/07/21 11:34:19;;;;;;;13.57;11.38;;;22.50;99.90;;;;;;5073663;28;20090;-66
2022/07/21 11:36:45;;;;;;;15.20;12.32;;;22.50;99.90;;;;;;5073960;28;20109;-65
2022/07/21 11:39:13;;;;;;;14.70;12.90;;;22.50;99.90;;;;;;5073539;28;20040;-65
2022/07/21 11:41:41;;;;;;;16.35;13.18;;;22.50;99.90;;;;;;5074128;28;20090;-66
2022/07/21 11:44:08;;;;;;;14.85;12.68;;;22.50;99.90;;;;;;5074184;28;20052;-65
2022/07/21 11:46:46;;;;;;;15.52;12.40;;;22.50;99.90;;;;;;5072707;28;20085;-65
2022/07/21 11:49:12;;;;;;;14.63;12.15;;;22.60;99.90;;;;;;5073704;28;20047;-66
2022/07/21 11:51:37;;;;;;;13.88;11.80;;;22.80;99.90;;;;;;5073838;28;20373;-66
2022/07/21 11:54:03;;;;;;;15.88;13.35;;;22.90;99.90;;;;;;5073686;28;20052;-66
2022/07/21 11:56:37;;;;;;;15.70;13.05;;;22.90;99.90;;;;;;5073590;28;20044;-65
2022/07/21 11:59:11;;;;;;;15.43;13.35;;;22.70;99.90;;;;;;5073931;28;20446;-65
2022/07/21 12:01:52;;;;;;;12.60;11.20;;;22.50;99.90;;;;;;5073540;28;20048;-65
2022/07/21 12:04:34;;;;;;;13.32;11.65;;;22.30;99.90;;;;;;5072902;28;20140;-66
2022/07/21 12:07:00;;;;;;;13.80;12.25;;;22.10;99.90;;;;;;5074203;28;20052;-65
2022/07/21 12:09:27;;;;;;;15.85;12.98;;;22.00;99.90;;;;;;5072222;28;20048;-66
2022/07/21 12:11:53;;;;;;;13.70;12.10;;;21.90;99.90;;;;;;5073312;28;20047;-66
2022/07/21 12:14:18;;;;;;;13.57;11.70;;;21.70;99.90;;;;;;5073882;28;20178;-65
2022/07/21 12:16:52;;;;;;;13.27;10.95;;;21.60;99.90;;;;;;5073337;28;20075;-65
2022/07/21 12:19:19;;;;;;;14.23;11.88;;;21.60;99.90;;;;;;5073252;28;20051;-65
2022/07/21 12:21:50;;;;;;;13.00;10.30;;;21.50;99.90;;;;;;5073553;28;20067;-66
2022/07/21 12:24:21;;;;;;;14.48;12.27;;;21.40;99.90;;;;;;5072897;28;20123;-66
2022/07/21 12:26:47;;;;;;;15.20;12.00;;;21.30;99.90;;;;;;5073666;28;20055;-65
2022/07/21 12:29:27;;;;;;;13.73;11.65;;;21.30;99.90;;;;;;5072084;28;20044;-66
2022/07/21 12:31:52;;;;;;;15.13;12.52;;;21.30;99.90;;;;;;5072540;28;20123;-66
2022/07/21 12:34:19;;;;;;;17.35;13.50;;;21.30;99.90;;;;;;5072910;28;20131;-67
2022/07/21 12:36:46;;;;;;;16.35;13.70;;;21.30;99.90;;;;;;5073516;28;20055;-67
2022/07/21 12:42:11;;;;;;;;;;;21.20;99.90;;;;;;5073357;28;20060;-67